Time;durP1;ratioP1;P1;durP2;ratioP2;P2;SDS_P1;SDS_P2;PMS_P1;PMS_P2;Temp;Humidity;BMP_temperature;BMP_pressure;BME280_temperature;BME280_humidity;BME280_pressure;Samples;Min_cycle;Max_cycle;Signal;HPM_P1;HPM_P2
2023/03/15 00:00:13;;;;;;;5.23;4.23;;;;;;;7.22;61.75;98374.13;7063834;28;20237;-81
2023/03/15 00:03:36;;;;;;;5.03;4.63;;;;;;;7.17;61.37;98322.94;7051479;28;20208;-81
2023/03/15 00:06:57;;;;;;;6.10;4.80;;;;;;;7.26;60.79;98331.66;7036313;28;20208;-81
2023/03/15 00:10:19;;;;;;;7.07;5.43;;;;;;;7.60;61.71;98390.69;7036342;28;20257;-81
2023/03/15 00:13:42;;;;;;;4.60;4.20;;;;;;;6.98;61.68;98398.66;7035968;28;20350;-81
2023/03/15 00:17:04;;;;;;;5.03;4.47;;;;;;;7.15;60.95;98346.44;7035584;28;20651;-81
2023/03/15 00:20:25;;;;;;;4.33;3.93;;;;;;;7.14;60.77;98376.09;7034133;28;20299;-81
2023/03/15 00:23:47;;;;;;;5.03;4.50;;;;;;;7.30;61.04;98395.41;7036312;28;20684;-80
2023/03/15 00:27:09;;;;;;;5.03;4.53;;;;;;;7.32;60.69;98438.13;7033636;28;20345;-82
2023/03/15 00:31:11;;;;;;;6.27;4.27;;;;;;;7.05;60.91;98386.13;7032002;28;20256;-80
2023/03/15 00:34:34;;;;;;;5.20;4.40;;;;;;;7.22;61.66;98456.38;7014795;28;20270;-80
2023/03/15 00:37:56;;;;;;;7.07;4.77;;;;;;;6.66;61.86;98382.25;7040852;28;20213;-80
2023/03/15 00:41:18;;;;;;;5.73;4.40;;;;;;;7.00;61.82;98431.44;7031014;28;20224;-80
2023/03/15 00:44:40;;;;;;;5.43;4.70;;;;;;;6.92;61.28;98388.69;7038734;28;20254;-80
2023/03/15 00:48:02;;;;;;;5.03;4.50;;;;;;;6.80;61.77;98406.31;7040599;28;20212;-81
2023/03/15 00:51:24;;;;;;;7.07;5.13;;;;;;;7.72;60.89;98473.09;7056453;22;20318;-80
2023/03/15 00:54:51;;;;;;;7.03;5.77;;;;;;;7.55;60.40;98477.09;7057129;28;20696;-80
2023/03/15 00:58:13;;;;;;;7.53;5.80;;;;;;;8.15;59.53;98480.03;7056317;28;20208;-80
2023/03/15 01:01:34;;;;;;;10.17;7.20;;;;;;;7.79;60.19;98487.38;7069901;27;20644;-80
2023/03/15 01:04:56;;;;;;;8.83;6.90;;;;;;;7.80;59.65;98489.06;7077631;27;20306;-80
2023/03/15 01:08:19;;;;;;;10.50;7.97;;;;;;;7.72;60.74;98494.56;7086299;27;20231;-80
2023/03/15 01:11:40;;;;;;;8.97;7.13;;;;;;;7.51;60.86;98502.66;7085445;27;20230;-80
2023/03/15 01:15:04;;;;;;;9.70;7.73;;;;;;;7.59;60.73;98490.94;7086642;27;20357;-80
2023/03/15 01:18:25;;;;;;;9.50;7.47;;;;;;;7.96;60.36;98520.16;7086349;27;20200;-80
2023/03/15 01:21:47;;;;;;;8.47;7.20;;;;;;;7.67;60.11;98502.38;7084241;27;20223;-80
2023/03/15 01:25:10;;;;;;;9.53;8.00;;;;;;;7.32;61.60;98535.47;7064193;27;20478;-80
2023/03/15 01:28:31;;;;;;;8.17;6.70;;;;;;;7.55;61.25;98517.31;7063215;27;20345;-79
2023/03/15 01:31:53;;;;;;;10.80;8.17;;;;;;;7.62;60.23;98504.81;7072618;28;20274;-80
2023/03/15 01:35:14;;;;;;;10.23;7.87;;;;;;;7.59;60.59;98520.44;7055601;28;20269;-79
2023/03/15 01:38:36;;;;;;;10.43;6.90;;;;;;;7.92;60.15;98529.63;7056434;28;20304;-79
2023/03/15 01:41:59;;;;;;;9.63;6.97;;;;;;;8.11;59.54;98535.13;7055916;28;20314;-79
2023/03/15 01:46:05;;;;;;;10.10;7.50;;;;;;;8.09;59.04;98542.56;7055842;28;20670;-80
2023/03/15 01:49:29;;;;;;;11.27;6.90;;;;;;;7.78;59.69;98503.72;7031209;28;20210;-79
2023/03/15 01:52:52;;;;;;;8.57;7.47;;;;;;;7.53;60.31;98540.84;7055549;28;20296;-80
2023/03/15 01:56:14;;;;;;;7.47;6.57;;;;;;;7.80;59.25;98540.06;7056303;28;20208;-80
2023/03/15 01:59:40;;;;;;;8.73;7.07;;;;;;;7.99;58.88;98554.66;7057400;28;20662;-80
2023/03/15 02:03:07;;;;;;;9.87;7.63;;;;;;;8.21;58.93;98553.63;7058949;28;20361;-80
2023/03/15 02:06:33;;;;;;;10.97;6.70;;;;;;;7.95;58.72;98556.91;7069886;27;20205;-80
2023/03/15 02:10:00;;;;;;;12.97;6.67;;;;;;;8.21;58.89;98569.72;7083728;27;20190;-79
2023/03/15 02:13:23;;;;;;;9.13;6.40;;;;;;;7.84;59.30;98576.19;7083138;27;20229;-80
2023/03/15 02:16:46;;;;;;;11.33;6.60;;;;;;;7.79;58.94;98551.78;7083436;27;20440;-80
2023/03/15 02:20:19;;;;;;;10.10;6.63;;;;;;;7.82;58.92;98572.06;7082212;28;20370;-80
2023/03/15 02:23:40;;;;;;;10.70;6.83;;;;;;;7.84;59.45;98570.84;7083273;27;20640;-80
2023/03/15 02:27:02;;;;;;;8.07;6.60;;;;;;;8.07;58.66;98579.50;7083196;28;20294;-78
2023/03/15 02:30:25;;;;;;;13.10;6.63;;;;;;;7.89;59.12;98581.03;7079949;27;20482;-80
2023/03/15 02:33:49;;;;;;;15.10;6.83;;;;;;;7.58;60.17;98596.59;7084838;27;20227;-79
2023/03/15 02:37:11;;;;;;;9.90;6.97;;;;;;;7.78;59.48;98601.13;7086108;27;20327;-80
2023/03/15 02:40:32;;;;;;;13.93;6.87;;;;;;;7.96;59.24;98589.94;7085954;27;20230;-79
2023/03/15 02:43:56;;;;;;;9.50;7.20;;;;;;;7.89;58.87;98587.19;7085891;27;20733;-80
2023/03/15 02:47:21;;;;;;;10.53;7.77;;;;;;;8.12;58.06;98600.38;7085746;27;20649;-79
2023/03/15 02:50:43;;;;;;;12.10;7.10;;;;;;;8.00;57.80;98602.78;7084844;27;20233;-80
2023/03/15 02:54:05;;;;;;;11.17;7.00;;;;;;;7.82;57.78;98606.94;7085983;27;20578;-79
2023/03/15 02:57:26;;;;;;;10.33;6.00;;;;;;;8.06;57.42;98609.22;7085893;27;20309;-79
2023/03/15 03:00:48;;;;;;;7.87;5.60;;;;;;;8.14;56.45;98619.84;7084926;27;20374;-79
2023/03/15 03:04:11;;;;;;;7.97;5.23;;;;;;;7.54;57.92;98639.06;7084960;27;20667;-79
2023/03/15 03:07:32;;;;;;;7.63;4.90;;;;;;;7.82;57.32;98648.03;7085694;27;20870;-80
2023/03/15 03:10:54;;;;;;;9.40;5.30;;;;;;;7.53;57.21;98648.13;7084711;27;20274;-80
2023/03/15 03:14:15;;;;;;;9.27;5.43;;;;;;;7.49;57.75;98660.25;7085761;27;20226;-79
2023/03/15 03:17:37;;;;;;;10.97;5.40;;;;;;;7.60;56.79;98616.03;7085650;27;20306;-80
2023/03/15 03:21:00;;;;;;;5.10;4.40;;;;;;;7.95;56.04;98676.88;7083964;27;20339;-79
2023/03/15 03:24:24;;;;;;;9.77;5.03;;;;;;;7.00;57.96;98647.69;7084157;27;20204;-78
2023/03/15 03:27:46;;;;;;;6.50;5.17;;;;;;;7.69;57.17;98677.44;7084788;27;20562;-79
2023/03/15 03:31:07;;;;;;;5.63;4.57;;;;;;;7.60;57.11;98701.88;7083264;27;20225;-78
2023/03/15 03:34:28;;;;;;;9.13;4.60;;;;;;;7.82;55.58;98693.66;7082095;27;20761;-79
2023/03/15 03:37:52;;;;;;;5.10;4.60;;;;;;;7.77;55.33;98688.03;7084622;27;20206;-79
2023/03/15 03:41:15;;;;;;;6.87;4.87;;;;;;;7.81;55.89;98701.91;7083177;27;20223;-78
2023/03/15 03:44:36;;;;;;;11.13;8.80;;;;;;;7.59;56.40;98709.09;7101616;27;20201;-78
2023/03/15 03:47:57;;;;;;;9.20;5.63;;;;;;;7.03;56.55;98692.88;7083657;27;20238;-79
2023/03/15 03:51:19;;;;;;;10.73;5.93;;;;;;;7.36;56.86;98719.13;7082438;27;20231;-78
2023/03/15 03:54:42;;;;;;;6.97;5.97;;;;;;;7.40;57.00;98724.94;7083321;27;20279;-78
2023/03/15 03:58:03;;;;;;;7.40;5.13;;;;;;;6.97;56.59;98734.69;7083449;27;20679;-79
2023/03/15 04:01:25;;;;;;;10.13;7.23;;;;;;;6.69;58.29;98716.72;7082301;27;20312;-78
2023/03/15 04:04:49;;;;;;;12.47;5.27;;;;;;;7.00;57.57;98746.84;7082170;27;20251;-79
2023/03/15 04:08:10;;;;;;;6.73;5.33;;;;;;;6.98;57.25;98738.19;7085296;27;20214;-79
2023/03/15 04:11:35;;;;;;;7.73;5.50;;;;;;;6.91;57.01;98748.81;7085674;27;20705;-79
2023/03/15 04:14:56;;;;;;;9.43;5.60;;;;;;;5.78;59.14;98765.94;7085133;27;20323;-79
2023/03/15 04:18:18;;;;;;;10.80;5.17;;;;;;;6.27;60.45;98757.44;7084208;27;20260;-79
2023/03/15 04:21:45;;;;;;;9.03;6.27;;;;;;;6.19;59.83;98762.00;7081673;27;20660;-79
2023/03/15 04:25:08;;;;;;;7.33;6.47;;;;;;;6.60;59.00;98776.75;7084875;27;20219;-79
2023/03/15 04:28:31;;;;;;;7.57;5.30;;;;;;;5.62;59.42;98747.28;7084884;27;20672;-79
2023/03/15 04:31:52;;;;;;;7.80;4.97;;;;;;;6.20;60.46;98771.72;7083356;27;20375;-79
2023/03/15 04:35:14;;;;;;;9.50;5.13;;;;;;;6.43;58.41;98788.59;7084857;27;20294;-79
2023/03/15 04:38:35;;;;;;;7.40;5.97;;;;;;;6.42;58.60;98781.59;7084559;27;20263;-79
2023/03/15 04:41:57;;;;;;;7.00;4.93;;;;;;;6.34;58.46;98779.78;7083637;27;20279;-79
2023/03/15 04:45:20;;;;;;;10.50;5.03;;;;;;;6.42;58.55;98782.41;7085062;27;20298;-79
2023/03/15 04:48:41;;;;;;;6.43;4.50;;;;;;;6.59;56.33;98810.72;7084198;27;20456;-79
2023/03/15 04:52:03;;;;;;;5.67;4.80;;;;;;;5.76;59.54;98802.69;7083273;27;20317;-79
2023/03/15 04:55:24;;;;;;;6.73;4.13;;;;;;;6.35;58.54;98808.22;7096329;27;20324;-79
2023/03/15 04:58:46;;;;;;;7.70;4.93;;;;;;;6.00;59.95;98792.75;7107828;27;20279;-79
2023/03/15 05:02:09;;;;;;;7.37;4.63;;;;;;;6.26;58.54;98795.91;7095226;27;20256;-79
2023/03/15 05:05:32;;;;;;;6.93;4.97;;;;;;;5.88;58.08;98762.03;7083690;27;20287;-79
2023/03/15 05:08:54;;;;;;;12.07;5.30;;;;;;;6.29;57.62;98771.47;7086926;27;20189;-79
2023/03/15 05:12:15;;;;;;;7.17;4.63;;;;;;;6.57;56.56;98787.81;7085405;27;20217;-79
2023/03/15 05:15:37;;;;;;;5.63;4.90;;;;;;;6.51;56.53;98796.56;7086265;27;20227;-80
2023/03/15 05:19:00;;;;;;;4.90;4.37;;;;;;;6.48;57.05;98791.56;7085989;27;20295;-80
2023/03/15 05:22:24;;;;;;;10.67;4.90;;;;;;;5.84;57.30;98776.78;7086149;27;20758;-79
2023/03/15 05:25:52;;;;;;;6.70;4.80;;;;;;;6.27;56.88;98792.25;7086680;27;20248;-79
2023/03/15 05:29:14;;;;;;;6.83;4.97;;;;;;;6.43;55.56;98792.09;7085766;27;20204;-78
2023/03/15 05:32:38;;;;;;;5.03;4.53;;;;;;;6.52;54.96;98787.50;7085537;27;20768;-79
2023/03/15 05:36:01;;;;;;;8.47;5.37;;;;;;;6.18;56.48;98792.47;7086175;27;20258;-79
2023/03/15 05:39:22;;;;;;;9.07;5.37;;;;;;;5.96;57.50;98795.94;7084890;27;20290;-80
2023/03/15 05:42:44;;;;;;;7.47;5.93;;;;;;;5.21;58.51;98797.44;7083793;27;20240;-82
2023/03/15 05:46:06;;;;;;;9.57;5.30;;;;;;;5.84;58.45;98800.03;7074870;27;20351;-77
2023/03/15 05:49:27;;;;;;;10.53;5.40;;;;;;;5.36;57.72;98768.97;7048540;27;20663;-78
2023/03/15 05:52:51;;;;;;;6.93;5.13;;;;;;;5.74;58.75;98786.84;7076686;27;21152;-78
2023/03/15 05:56:13;;;;;;;9.37;6.17;;;;;;;6.03;57.61;98821.84;7058440;27;20691;-80
2023/03/15 05:59:34;;;;;;;15.90;5.97;;;;;;;5.64;58.57;98823.66;7082628;27;20371;-78
2023/03/15 06:02:56;;;;;;;9.10;5.40;;;;;;;5.70;58.14;98798.91;7082763;27;20222;-79
2023/03/15 06:06:17;;;;;;;9.93;5.07;;;;;;;6.02;57.89;98811.31;7080478;27;20203;-78
2023/03/15 06:09:40;;;;;;;10.83;5.37;;;;;;;5.89;57.70;98819.88;7063703;28;20301;-78
2023/03/15 06:13:02;;;;;;;7.07;5.80;;;;;;;6.12;56.25;98771.75;7072698;27;20275;-78
2023/03/15 06:16:23;;;;;;;9.20;4.93;;;;;;;6.22;55.89;98815.19;7061737;27;20601;-77
2023/03/15 06:19:45;;;;;;;18.47;5.60;;;;;;;5.87;56.38;98823.75;7058860;28;20241;-79
2023/03/15 06:23:06;;;;;;;10.13;5.67;;;;;;;5.65;57.33;98773.69;7095317;27;20306;-78
2023/03/15 06:26:29;;;;;;;10.37;5.60;;;;;;;5.80;57.83;98833.50;7093302;27;20711;-79
2023/03/15 06:29:51;;;;;;;7.20;5.20;;;;;;;6.30;56.81;98837.38;7077763;28;20335;-78
2023/03/15 06:33:12;;;;;;;15.53;5.93;;;;;;;5.96;57.91;98844.94;7079937;28;20267;-79
2023/03/15 06:36:35;;;;;;;11.50;5.83;;;;;;;6.18;57.42;98837.97;7080937;28;20263;-79
2023/03/15 06:39:57;;;;;;;10.77;6.33;;;;;;;6.06;57.46;98855.41;7078012;27;20198;-79
2023/03/15 06:43:20;;;;;;;10.90;6.57;;;;;;;6.31;58.63;98806.09;7081086;28;20312;-80
2023/03/15 06:46:41;;;;;;;7.27;6.40;;;;;;;6.82;55.99;98850.88;7080804;28;20203;-80
2023/03/15 06:50:03;;;;;;;11.90;6.20;;;;;;;7.37;55.68;98840.66;7078874;28;20260;-79
2023/03/15 06:53:24;;;;;;;7.60;4.23;;;;;;;7.90;53.40;98854.59;7078906;28;20727;-79
2023/03/15 06:56:46;;;;;;;6.30;4.37;;;;;;;8.78;51.80;98839.91;7079272;28;20783;-79
2023/03/15 07:00:11;;;;;;;11.80;5.30;;;;;;;8.50;52.81;98862.38;7078889;28;20289;-80
2023/03/15 07:03:32;;;;;;;7.97;4.30;;;;;;;9.11;49.44;98849.91;7080150;28;20224;-78
2023/03/15 07:06:54;;;;;;;4.30;3.83;;;;;;;9.69;46.57;98843.28;7079353;28;20337;-78
2023/03/15 07:10:16;;;;;;;7.33;4.47;;;;;;;9.67;48.07;98848.88;7079209;28;20661;-78
2023/03/15 07:13:37;;;;;;;7.47;4.07;;;;;;;10.34;44.39;98844.44;7080423;28;20693;-79
2023/03/15 07:17:00;;;;;;;5.63;3.20;;;;;;;9.92;44.19;98833.06;7078921;27;20260;-78
2023/03/15 07:20:21;;;;;;;6.30;3.33;;;;;;;9.69;44.98;98833.34;7083267;27;20252;-78
2023/03/15 07:23:43;;;;;;;6.43;3.60;;;;;;;10.35;43.73;98818.31;7083945;27;20604;-77
2023/03/15 07:27:05;;;;;;;10.43;3.60;;;;;;;10.28;44.51;98849.81;7084292;27;20299;-78
2023/03/15 07:30:27;;;;;;;6.67;3.37;;;;;;;11.07;41.91;98849.75;7083348;27;20697;-78
2023/03/15 07:33:50;;;;;;;10.70;3.87;;;;;;;10.27;43.05;98846.28;7085776;27;20246;-79
2023/03/15 07:37:11;;;;;;;7.93;3.80;;;;;;;10.34;42.51;98843.63;7084742;27;20884;-78
2023/03/15 07:40:33;;;;;;;8.53;3.60;;;;;;;9.27;44.89;98867.66;7075149;27;20228;-78
2023/03/15 07:43:54;;;;;;;6.83;3.83;;;;;;;9.35;44.26;98864.81;7075622;27;20200;-77
2023/03/15 07:47:15;;;;;;;9.87;3.53;;;;;;;9.58;44.73;98870.75;7083760;27;20294;-78
2023/03/15 07:50:38;;;;;;;5.83;3.50;;;;;;;9.74;44.33;98879.34;7076900;27;20228;-78
2023/03/15 07:54:00;;;;;;;5.83;3.40;;;;;;;9.61;45.00;98870.34;7077312;27;20220;-78
2023/03/15 07:57:21;;;;;;;7.77;3.90;;;;;;;10.93;42.63;98869.66;7064751;27;20220;-77
2023/03/15 08:00:43;;;;;;;7.37;3.60;;;;;;;10.70;41.95;98895.34;7054980;28;20714;-79
2023/03/15 08:04:04;;;;;;;5.53;3.33;;;;;;;10.18;43.65;98884.38;7055939;28;20208;-78
2023/03/15 08:07:27;;;;;;;6.60;3.70;;;;;;;10.30;43.85;98883.63;7062682;27;20216;-78
2023/03/15 08:10:49;;;;;;;11.93;3.60;;;;;;;9.94;44.25;98842.59;7060969;28;20276;-77
2023/03/15 08:14:10;;;;;;;5.33;3.20;;;;;;;10.06;44.66;98876.06;7054175;28;20370;-78
2023/03/15 08:17:32;;;;;;;6.93;3.27;;;;;;;10.36;43.36;98876.56;7058487;28;20639;-78
2023/03/15 08:20:53;;;;;;;8.50;3.47;;;;;;;10.36;43.55;98885.50;7054669;28;20362;-78
2023/03/15 08:24:16;;;;;;;8.23;3.33;;;;;;;11.29;41.36;98882.78;7056584;28;20252;-78
2023/03/15 08:27:38;;;;;;;4.63;2.77;;;;;;;11.20;41.11;98879.44;7074810;27;20348;-78
2023/03/15 08:30:59;;;;;;;5.67;3.17;;;;;;;11.85;39.68;98889.38;7086197;27;20311;-78
2023/03/15 08:34:21;;;;;;;5.13;2.90;;;;;;;10.98;41.10;98893.34;7085982;27;20228;-77
2023/03/15 08:37:45;;;;;;;4.90;2.90;;;;;;;10.78;39.85;98857.41;7082879;27;20222;-78
2023/03/15 08:41:08;;;;;;;9.60;3.03;;;;;;;11.00;41.23;98884.00;7082079;27;20222;-78
2023/03/15 08:44:30;;;;;;;6.97;2.77;;;;;;;11.25;40.74;98870.72;7085149;27;20661;-77
2023/03/15 08:47:55;;;;;;;9.70;3.20;;;;;;;12.05;38.80;98892.88;7083349;27;20207;-78
2023/03/15 08:51:16;;;;;;;6.43;2.53;;;;;;;11.09;41.71;98901.63;7080893;27;20228;-77
2023/03/15 08:54:39;;;;;;;5.70;3.30;;;;;;;10.74;40.90;98915.50;7081955;27;20372;-78
2023/03/15 08:58:02;;;;;;;3.60;2.63;;;;;;;11.10;39.60;98915.97;7058094;27;20317;-78
2023/03/15 09:01:24;;;;;;;6.03;3.40;;;;;;;10.16;41.57;98922.28;7051947;28;20228;-78
2023/03/15 09:04:46;;;;;;;5.40;2.57;;;;;;;11.13;39.79;98893.97;7053939;28;20213;-77
2023/03/15 09:08:07;;;;;;;4.57;2.57;;;;;;;11.22;40.00;98917.03;7053979;28;20260;-78
2023/03/15 09:11:29;;;;;;;5.90;2.80;;;;;;;11.59;39.51;98905.63;7059118;27;20703;-78
2023/03/15 09:14:51;;;;;;;4.23;2.73;;;;;;;11.22;40.37;98917.84;7053509;28;20368;-77
2023/03/15 09:18:13;;;;;;;4.17;2.60;;;;;;;11.83;38.90;98929.28;7052258;28;20204;-77
2023/03/15 09:21:34;;;;;;;4.23;2.83;;;;;;;12.14;38.47;98916.75;7055132;28;20228;-77
2023/03/15 09:24:56;;;;;;;4.10;2.53;;;;;;;11.61;38.77;98925.16;7052803;28;20242;-77
2023/03/15 09:28:17;;;;;;;4.30;2.73;;;;;;;12.09;37.40;98929.25;7052609;28;20623;-77
2023/03/15 09:31:40;;;;;;;6.50;2.70;;;;;;;12.10;38.94;98934.41;7052105;28;20358;-78
2023/03/15 09:35:03;;;;;;;2.40;2.20;;;;;;;12.29;36.84;98938.13;7056060;28;20300;-82
2023/03/15 09:38:25;;;;;;;3.20;2.90;;;;;;;11.59;40.36;98928.06;7057059;28;20512;-79
2023/03/15 09:41:48;;;;;;;6.87;2.90;;;;;;;12.16;38.25;98932.75;7057025;28;20258;-79
2023/03/15 09:45:18;;;;;;;5.47;3.60;;;;;;;11.79;38.89;98946.94;7059528;27;20200;-79
2023/03/15 09:48:50;;;;;;;5.50;3.03;;;;;;;12.16;37.97;98925.47;7054166;28;20329;-83
2023/03/15 09:52:22;;;;;;;2.80;2.60;;;;;;;12.52;37.68;98928.47;7055736;28;20235;-80
2023/03/15 09:55:44;;;;;;;4.73;3.07;;;;;;;12.24;38.79;98930.66;7058881;28;20216;-78
2023/03/15 09:59:06;;;;;;;9.00;4.00;;;;;;;12.20;38.31;98934.81;7056189;28;20335;-77
2023/03/15 10:02:30;;;;;;;15.90;7.30;;;;;;;12.28;39.24;98939.19;7079930;27;20769;-79
2023/03/15 10:05:56;;;;;;;13.43;4.13;;;;;;;12.64;38.76;98928.63;7082823;27;20205;-81
2023/03/15 10:09:21;;;;;;;4.97;2.93;;;;;;;12.52;37.28;98924.94;7084260;27;20324;-78
2023/03/15 10:12:50;;;;;;;4.53;2.67;;;;;;;11.95;37.66;98920.34;7082706;27;20708;-79
2023/03/15 10:16:22;;;;;;;7.67;4.83;;;;;;;11.28;40.19;98935.09;7084296;27;20235;-80
2023/03/15 10:19:49;;;;;;;4.07;2.20;;;;;;;11.72;37.75;98927.22;7087122;27;20256;-79
2023/03/15 10:23:15;;;;;;;5.23;2.60;;;;;;;11.73;37.73;98929.72;7084780;28;20294;-78
2023/03/15 10:26:40;;;;;;;5.90;3.00;;;;;;;11.33;38.59;98938.81;7081332;28;20180;-79
2023/03/15 10:30:15;;;;;;;6.73;2.67;;;;;;;11.84;38.33;98936.34;7081843;28;20200;-80
2023/03/15 10:33:38;;;;;;;7.03;2.67;;;;;;;11.50;37.76;98928.44;7082257;28;20290;-79
2023/03/15 10:36:59;;;;;;;4.77;2.40;;;;;;;11.71;38.34;98926.41;7082289;28;20281;-80
2023/03/15 10:40:43;;;;;;;6.33;3.07;;;;;;;12.17;37.32;98929.00;7083779;28;20208;-79
2023/03/15 10:44:08;;;;;;;4.87;2.40;;;;;;;12.17;38.37;98927.13;7080566;28;20340;-78
2023/03/15 10:47:29;;;;;;;3.50;2.43;;;;;;;12.38;37.89;98928.72;7084979;28;20203;-79
2023/03/15 10:50:51;;;;;;;4.43;2.33;;;;;;;12.45;37.41;98937.66;7082184;28;20279;-79
2023/03/15 10:54:14;;;;;;;5.10;2.70;;;;;;;12.10;36.99;98926.31;7061715;28;20255;-79
2023/03/15 10:57:38;;;;;;;3.43;2.40;;;;;;;11.86;36.07;98872.16;7062318;28;20356;-79
2023/03/15 11:01:06;;;;;;;5.03;2.30;;;;;;;12.62;36.21;98920.72;7062673;28;20224;-77
2023/03/15 11:04:29;;;;;;;6.13;2.60;;;;;;;12.96;36.09;98919.53;7062489;28;20195;-80
2023/03/15 11:07:55;;;;;;;3.40;2.20;;;;;;;14.30;34.21;98900.66;7060320;28;20209;-81
2023/03/15 11:11:20;;;;;;;4.87;2.23;;;;;;;13.57;35.02;98910.53;7057959;28;20737;-79
2023/03/15 11:14:45;;;;;;;2.90;2.20;;;;;;;13.80;34.24;98908.03;7057040;28;20655;-79
2023/03/15 11:18:10;;;;;;;3.23;2.13;;;;;;;13.83;34.77;98872.38;7057839;28;20467;-78
2023/03/15 11:21:33;;;;;;;3.67;2.50;;;;;;;13.47;33.95;98901.25;7056564;28;20701;-79
2023/03/15 11:24:57;;;;;;;2.60;2.37;;;;;;;12.96;34.97;98906.00;7056267;28;20237;-80
2023/03/15 11:28:21;;;;;;;4.87;2.33;;;;;;;12.95;34.87;98888.06;7055589;28;20229;-80
2023/03/15 11:31:44;;;;;;;3.50;2.17;;;;;;;12.84;34.97;98915.81;7055595;28;20304;-79
2023/03/15 11:35:08;;;;;;;3.87;2.00;;;;;;;12.82;36.42;98907.09;7057365;27;20404;-81
2023/03/15 11:38:33;;;;;;;5.33;2.30;;;;;;;12.54;37.82;98898.50;7070326;27;20234;-80
2023/03/15 11:41:57;;;;;;;5.17;2.40;;;;;;;12.56;38.23;98902.66;7078758;27;20212;-80
2023/03/15 11:45:24;;;;;;;3.57;2.33;;;;;;;12.47;39.71;98931.00;7082295;27;20301;-79
2023/03/15 11:48:50;;;;;;;2.67;2.33;;;;;;;12.13;40.62;98927.75;7083466;27;20240;-79
2023/03/15 11:52:12;;;;;;;3.30;2.27;;;;;;;11.89;42.48;98923.03;7082883;27;20224;-79
2023/03/15 11:55:34;;;;;;;4.30;2.27;;;;;;;11.52;42.76;98910.19;7083550;27;20360;-79
2023/03/15 11:59:10;;;;;;;7.73;2.73;;;;;;;12.15;41.13;98912.19;7083175;27;20369;-79
2023/03/15 12:02:36;;;;;;;3.37;2.13;;;;;;;12.54;42.70;98909.31;7082398;27;20227;-80
2023/03/15 12:06:11;;;;;;;9.80;6.70;;;;;;;12.67;41.37;98911.97;7084483;27;20325;-81
2023/03/15 12:09:41;;;;;;;6.83;3.60;;;;;;;12.88;40.70;98877.31;7082312;27;20223;-80
2023/03/15 12:13:18;;;;;;;2.87;2.17;;;;;;;13.20;38.57;98897.09;7069366;27;20284;-80
2023/03/15 12:16:42;;;;;;;3.47;2.20;;;;;;;13.22;39.28;98898.53;7058997;28;20333;-79
2023/03/15 12:20:08;;;;;;;3.30;2.20;;;;;;;13.36;39.18;98904.69;7057988;28;20289;-82
2023/03/15 12:23:37;;;;;;;2.60;1.87;;;;;;;13.59;37.47;98896.78;7058310;28;20205;-80
2023/03/15 12:27:01;;;;;;;3.03;2.30;;;;;;;13.17;36.33;98911.09;7059017;28;20273;-79
2023/03/15 12:30:25;;;;;;;4.00;2.60;;;;;;;12.43;36.79;98910.00;7062224;28;20259;-81
2023/03/15 12:33:49;;;;;;;3.40;2.73;;;;;;;11.81;36.47;98907.06;7061116;28;20350;-79
2023/03/15 12:37:15;;;;;;;3.73;2.43;;;;;;;12.78;36.66;98882.34;7057255;28;20225;-79
2023/03/15 12:40:51;;;;;;;3.83;3.30;;;;;;;13.05;36.39;98907.41;7055783;28;20321;-80
2023/03/15 12:44:37;;;;;;;6.23;3.70;;;;;;;12.56;38.38;98910.78;7056165;28;20271;-81
2023/03/15 12:48:22;;;;;;;3.07;2.77;;;;;;;12.70;38.27;98898.00;7056001;28;20192;-79
2023/03/15 12:51:45;;;;;;;7.57;3.20;;;;;;;11.53;40.74;98917.22;7055609;28;20305;-80
2023/03/15 12:55:13;;;;;;;3.43;2.40;;;;;;;11.52;42.13;98913.69;7056097;28;20236;-81
2023/03/15 12:58:37;;;;;;;3.10;2.80;;;;;;;10.76;42.06;98873.81;7054767;28;20238;-81
2023/03/15 13:02:00;;;;;;;5.20;2.93;;;;;;;11.05;44.16;98889.59;7053698;28;20288;-81
2023/03/15 13:05:29;;;;;;;7.27;2.90;;;;;;;10.57;47.04;98927.66;7056011;28;20216;-79
2023/03/15 13:08:55;;;;;;;8.23;3.57;;;;;;;10.80;47.49;98942.47;7055637;28;20192;-79
2023/03/15 13:12:21;;;;;;;7.43;3.30;;;;;;;11.06;48.07;98952.50;7054814;28;20311;-82
2023/03/15 13:15:46;;;;;;;3.97;2.83;;;;;;;11.91;44.53;98951.50;7055287;28;20217;-80
2023/03/15 13:19:17;;;;;;;4.53;2.80;;;;;;;10.89;46.24;98914.28;7056221;28;20699;-80
2023/03/15 13:22:46;;;;;;;9.13;3.27;;;;;;;10.77;46.63;98933.94;7056015;28;20324;-80
2023/03/15 13:26:20;;;;;;;9.80;3.60;;;;;;;10.91;46.98;98958.06;7056874;28;20329;-80
2023/03/15 13:29:41;;;;;;;5.93;3.20;;;;;;;11.09;46.58;98955.59;7055333;28;20274;-81
2023/03/15 13:33:13;;;;;;;5.23;3.03;;;;;;;10.31;48.61;98957.19;7062171;28;20283;-80
2023/03/15 13:36:40;;;;;;;4.93;3.20;;;;;;;11.17;47.34;98950.00;7072741;28;20252;-83
2023/03/15 13:40:04;;;;;;;3.10;2.40;;;;;;;10.31;47.23;98896.06;7065178;28;20633;-84
2023/03/15 13:43:27;;;;;;;5.17;3.00;;;;;;;10.50;48.32;98907.94;7052772;27;20232;-83
2023/03/15 13:46:50;;;;;;;2.83;2.63;;;;;;;11.43;46.20;98933.84;7073553;27;20646;-84
2023/03/15 13:50:15;;;;;;;9.57;8.53;;;;;;;11.46;45.61;98946.09;7079334;27;20290;-81
2023/03/15 13:53:38;;;;;;;7.40;5.23;;;;;;;11.36;45.87;98945.69;7081211;27;20296;-80
2023/03/15 13:57:02;;;;;;;25.30;20.53;;;;;;;11.48;45.41;98947.56;7080741;27;20228;-80
2023/03/15 14:00:25;;;;;;;3.70;3.40;;;;;;;11.42;45.13;98931.34;7080621;27;20207;-83
2023/03/15 14:03:49;;;;;;;4.90;2.67;;;;;;;11.48;45.42;98930.53;7080644;27;20203;-80
2023/03/15 14:07:25;;;;;;;4.83;2.90;;;;;;;11.27;43.87;98906.44;7080363;27;20206;-80
2023/03/15 14:10:58;;;;;;;3.23;2.40;;;;;;;11.02;44.07;98956.63;7079962;27;20352;-81
2023/03/15 14:14:23;;;;;;;9.33;8.37;;;;;;;11.41;44.40;98967.50;7081065;27;20203;-80
2023/03/15 14:17:52;;;;;;;4.67;2.90;;;;;;;10.75;47.02;98971.91;7076158;27;20219;-80
2023/03/15 14:21:16;;;;;;;4.00;2.50;;;;;;;10.30;50.16;98969.84;7079904;27;20227;-80
2023/03/15 14:24:41;;;;;;;2.80;2.40;;;;;;;9.98;51.46;98931.91;7080396;28;20370;-80
2023/03/15 14:28:04;;;;;;;3.43;2.70;;;;;;;10.43;52.57;98967.22;7086770;27;20768;-80
2023/03/15 14:31:27;;;;;;;3.87;2.60;;;;;;;10.34;52.74;98964.88;7087393;27;20251;-80
2023/03/15 14:34:49;;;;;;;4.33;2.60;;;;;;;10.20;50.95;98925.41;7062690;27;20252;-81
2023/03/15 14:38:16;;;;;;;3.20;2.47;;;;;;;10.81;51.42;98948.69;7061808;28;20224;-81
2023/03/15 14:41:39;;;;;;;2.93;2.33;;;;;;;11.38;50.42;98946.28;7066302;28;20223;-81
2023/03/15 14:45:01;;;;;;;2.43;2.23;;;;;;;11.33;48.20;98928.03;7064025;28;20634;-80
2023/03/15 14:48:26;;;;;;;4.00;3.00;;;;;;;11.48;47.54;98925.97;7061886;27;20207;-80
2023/03/15 14:51:52;;;;;;;2.67;2.47;;;;;;;11.84;45.93;98942.59;7064890;27;20362;-80
2023/03/15 14:55:16;;;;;;;4.53;2.70;;;;;;;11.63;46.23;98886.09;7062035;28;20241;-80
2023/03/15 14:58:39;;;;;;;3.90;2.20;;;;;;;11.85;45.95;98936.13;7061866;28;20228;-80
2023/03/15 15:02:01;;;;;;;5.50;2.13;;;;;;;11.52;45.51;98931.78;7059520;27;20697;-80
2023/03/15 15:05:26;;;;;;;7.07;2.60;;;;;;;11.21;46.68;98918.88;7062929;28;20212;-80
2023/03/15 15:08:48;;;;;;;3.67;2.20;;;;;;;10.89;47.81;98960.13;7062533;28;20215;-80
2023/03/15 15:12:10;;;;;;;2.00;1.90;;;;;;;8.91;52.94;98992.44;7061016;28;20294;-80
2023/03/15 15:15:34;;;;;;;3.43;1.80;;;;;;;9.05;55.07;99003.16;7061701;28;20209;-80
2023/03/15 15:18:55;;;;;;;4.70;2.10;;;;;;;8.95;55.63;98985.69;7062270;28;20233;-80
2023/03/15 15:22:22;;;;;;;2.30;2.03;;;;;;;9.51;54.59;98991.00;7061529;28;20365;-80
2023/03/15 15:25:44;;;;;;;4.00;2.27;;;;;;;9.29;54.77;98994.72;7061743;28;20654;-80
2023/03/15 15:29:05;;;;;;;4.10;2.80;;;;;;;9.87;55.28;98986.31;7063721;28;20293;-80
2023/03/15 15:32:28;;;;;;;6.73;6.20;;;;;;;9.81;55.99;99005.94;7062470;28;20256;-80
2023/03/15 15:35:50;;;;;;;8.50;4.80;;;;;;;9.53;56.51;98997.84;7068088;28;20358;-80
2023/03/15 15:39:18;;;;;;;3.93;3.37;;;;;;;9.82;55.42;99003.06;7092732;27;20295;-81
2023/03/15 15:42:39;;;;;;;4.93;4.30;;;;;;;9.48;56.52;99002.97;7094974;27;20226;-81
2023/03/15 15:46:01;;;;;;;6.20;4.47;;;;;;;9.59;56.64;99010.53;7089723;27;20345;-81
2023/03/15 15:49:24;;;;;;;3.63;3.33;;;;;;;9.79;56.00;99027.69;7086074;27;20554;-80
2023/03/15 15:52:47;;;;;;;3.93;2.83;;;;;;;9.62;56.52;99004.75;7085749;27;20263;-81
2023/03/15 15:56:11;;;;;;;5.40;4.40;;;;;;;9.04;57.70;99006.88;7088707;27;20276;-81
2023/03/15 15:59:32;;;;;;;3.00;2.80;;;;;;;8.65;59.43;99027.06;7088139;27;20541;-82
2023/03/15 16:02:56;;;;;;;3.07;2.80;;;;;;;8.45;58.95;99008.03;7086178;27;20223;-80